sensor_id;sensor_type;location;lat;lon;timestamp;pressure;altitude;pressure_sealevel;temperature;humidity
75891;BME280;64571;47.512;19.054;2023-02-28T00:00:44;101520.31;;;1.88;54.62
75891;BME280;64571;47.512;19.054;2023-02-28T00:03:47;101524.75;;;1.95;55.65
75891;BME280;64571;47.512;19.054;2023-02-28T00:06:50;101548.37;;;2.03;55.47
75891;BME280;64571;47.512;19.054;2023-02-28T00:09:53;101552.78;;;2.04;55.00
75891;BME280;64571;47.512;19.054;2023-02-28T00:13:00;101540.78;;;1.92;54.29
75891;BME280;64571;47.512;19.054;2023-02-28T00:16:09;101565.63;;;1.97;53.88
75891;BME280;64571;47.512;19.054;2023-02-28T00:19:12;101541.00;;;1.77;53.51
75891;BME280;64571;47.512;19.054;2023-02-28T00:22:19;101565.03;;;1.95;53.92
75891;BME280;64571;47.512;19.054;2023-02-28T00:25:24;101548.16;;;1.78;53.95
75891;BME280;64571;47.512;19.054;2023-02-28T00:28:27;101546.03;;;1.80;54.02
75891;BME280;64571;47.512;19.054;2023-02-28T00:31:30;101544.59;;;1.77;54.18
75891;BME280;64571;47.512;19.054;2023-02-28T00:34:32;101567.56;;;1.90;53.68
75891;BME280;64571;47.512;19.054;2023-02-28T00:37:39;101545.22;;;1.86;53.54
75891;BME280;64571;47.512;19.054;2023-02-28T00:40:42;101553.84;;;1.90;53.24
75891;BME280;64571;47.512;19.054;2023-02-28T00:43:45;101574.72;;;2.04;53.02
75891;BME280;64571;47.512;19.054;2023-02-28T00:46:48;101565.00;;;2.01;53.26
75891;BME280;64571;47.512;19.054;2023-02-28T00:49:50;101573.03;;;1.96;53.80
75891;BME280;64571;47.512;19.054;2023-02-28T00:52:53;101574.50;;;2.06;53.35
75891;BME280;64571;47.512;19.054;2023-02-28T00:55:55;101584.41;;;2.07;53.14
75891;BME280;64571;47.512;19.054;2023-02-28T00:58:58;101548.78;;;1.93;53.04
75891;BME280;64571;47.512;19.054;2023-02-28T01:02:00;101578.28;;;2.05;52.58
75891;BME280;64571;47.512;19.054;2023-02-28T01:05:03;101557.88;;;1.94;52.45
75891;BME280;64571;47.512;19.054;2023-02-28T01:08:06;101584.81;;;2.10;52.23
75891;BME280;64571;47.512;19.054;2023-02-28T01:11:15;101565.22;;;2.00;52.04
75891;BME280;64571;47.512;19.054;2023-02-28T01:14:17;101584.59;;;2.18;52.22
75891;BME280;64571;47.512;19.054;2023-02-28T01:17:20;101579.31;;;2.23;52.21
75891;BME280;64571;47.512;19.054;2023-02-28T01:20:23;101587.13;;;2.26;52.09
75891;BME280;64571;47.512;19.054;2023-02-28T01:23:25;101565.19;;;2.07;52.77
75891;BME280;64571;47.512;19.054;2023-02-28T01:26:28;101569.00;;;2.12;52.82
75891;BME280;64571;47.512;19.054;2023-02-28T01:29:30;101563.31;;;2.07;53.64
75891;BME280;64571;47.512;19.054;2023-02-28T01:32:33;101596.00;;;2.15;54.43
75891;BME280;64571;47.512;19.054;2023-02-28T01:35:35;101567.75;;;2.01;54.92
75891;BME280;64571;47.512;19.054;2023-02-28T01:38:38;101584.19;;;2.08;55.11
75891;BME280;64571;47.512;19.054;2023-02-28T01:41:41;101561.22;;;1.96;55.63
75891;BME280;64571;47.512;19.054;2023-02-28T01:48:08;101573.88;;;2.03;57.14
75891;BME280;64571;47.512;19.054;2023-02-28T01:51:24;101580.62;;;2.01;57.58
75891;BME280;64571;47.512;19.054;2023-02-28T01:54:31;101562.91;;;1.84;58.48
75891;BME280;64571;47.512;19.054;2023-02-28T01:57:38;101584.00;;;1.90;58.93
75891;BME280;64571;47.512;19.054;2023-02-28T02:00:44;101582.53;;;1.87;59.61
75891;BME280;64571;47.512;19.054;2023-02-28T02:04:01;101581.47;;;1.88;59.13
75891;BME280;64571;47.512;19.054;2023-02-28T02:07:05;101573.44;;;1.80;58.90
75891;BME280;64571;47.512;19.054;2023-02-28T02:24:01;101557.44;;;1.84;57.48
75891;BME280;64571;47.512;19.054;2023-02-28T02:27:23;101566.09;;;1.94;57.03
75891;BME280;64571;47.512;19.054;2023-02-28T02:37:24;101575.13;;;2.08;56.77
75891;BME280;64571;47.512;19.054;2023-02-28T02:41:04;101550.66;;;1.93;57.18
75891;BME280;64571;47.512;19.054;2023-02-28T02:44:40;101572.81;;;2.05;57.05
75891;BME280;64571;47.512;19.054;2023-02-28T02:47:48;101576.81;;;2.02;57.24
75891;BME280;64571;47.512;19.054;2023-02-28T02:50:55;101565.00;;;2.01;57.20
75891;BME280;64571;47.512;19.054;2023-02-28T02:54:11;101559.13;;;1.91;57.22
75891;BME280;64571;47.512;19.054;2023-02-28T03:00:52;101582.75;;;1.99;57.40
75891;BME280;64571;47.512;19.054;2023-02-28T03:03:58;101553.22;;;1.88;56.92
75891;BME280;64571;47.512;19.054;2023-02-28T03:07:02;101553.41;;;1.93;56.56
75891;BME280;64571;47.512;19.054;2023-02-28T03:10:28;101560.78;;;1.92;57.68
75891;BME280;64571;47.512;19.054;2023-02-28T03:20:04;101584.00;;;2.03;57.56
75891;BME280;64571;47.512;19.054;2023-02-28T03:23:17;101589.91;;;2.00;58.57
75891;BME280;64571;47.512;19.054;2023-02-28T03:26:23;101576.19;;;1.87;58.34
75891;BME280;64571;47.512;19.054;2023-02-28T03:29:38;101593.50;;;1.94;58.93
75891;BME280;64571;47.512;19.054;2023-02-28T03:33:03;101592.84;;;1.92;58.11
75891;BME280;64571;47.512;19.054;2023-02-28T03:36:13;101589.47;;;1.96;58.12
75891;BME280;64571;47.512;19.054;2023-02-28T03:39:21;101590.13;;;1.98;57.78
75891;BME280;64571;47.512;19.054;2023-02-28T03:42:28;101565.47;;;1.85;57.01
75891;BME280;64571;47.512;19.054;2023-02-28T03:45:35;101569.03;;;1.72;56.28
75891;BME280;64571;47.512;19.054;2023-02-28T03:48:44;101569.03;;;1.72;56.39
75891;BME280;64571;47.512;19.054;2023-02-28T03:51:49;101567.78;;;1.68;56.51
75891;BME280;64571;47.512;19.054;2023-02-28T03:54:54;101570.09;;;1.65;56.17
75891;BME280;64571;47.512;19.054;2023-02-28T03:58:21;101586.75;;;1.76;56.25
75891;BME280;64571;47.512;19.054;2023-02-28T04:01:42;101588.84;;;1.88;55.75
75891;BME280;64571;47.512;19.054;2023-02-28T04:04:45;101584.00;;;1.90;54.83
75891;BME280;64571;47.512;19.054;2023-02-28T04:07:50;101588.44;;;1.91;55.09
75891;BME280;64571;47.512;19.054;2023-02-28T04:10:58;101586.72;;;1.96;55.23
75891;BME280;64571;47.512;19.054;2023-02-28T04:14:04;101572.59;;;1.99;55.04
75891;BME280;64571;47.512;19.054;2023-02-28T04:17:07;101576.00;;;1.95;53.81
75891;BME280;64571;47.512;19.054;2023-02-28T04:20:10;101548.56;;;1.88;53.78
75891;BME280;64571;47.512;19.054;2023-02-28T04:23:13;101581.66;;;2.00;53.76
75891;BME280;64571;47.512;19.054;2023-02-28T04:26:16;101580.62;;;2.08;53.51
75891;BME280;64571;47.512;19.054;2023-02-28T04:29:21;101549.41;;;1.89;53.64
75891;BME280;64571;47.512;19.054;2023-02-28T04:32:24;101572.81;;;1.98;53.88
75891;BME280;64571;47.512;19.054;2023-02-28T04:35:27;101575.78;;;2.03;53.75
75891;BME280;64571;47.512;19.054;2023-02-28T04:38:32;101571.34;;;2.09;54.25
75891;BME280;64571;47.512;19.054;2023-02-28T04:41:35;101565.63;;;1.97;53.64
75891;BME280;64571;47.512;19.054;2023-02-28T04:44:37;101548.78;;;1.87;53.52
75891;BME280;64571;47.512;19.054;2023-02-28T04:47:40;101569.22;;;1.97;53.33
75891;BME280;64571;47.512;19.054;2023-02-28T04:50:42;101570.09;;;1.85;53.35
75891;BME280;64571;47.512;19.054;2023-02-28T04:53:47;101566.28;;;1.86;53.05
75891;BME280;64571;47.512;19.054;2023-02-28T04:56:50;101551.09;;;1.57;53.28
75891;BME280;64571;47.512;19.054;2023-02-28T04:59:52;101570.31;;;1.76;53.42
75891;BME280;64571;47.512;19.054;2023-02-28T05:02:55;101571.12;;;1.70;53.66
75891;BME280;64571;47.512;19.054;2023-02-28T05:05:57;101573.22;;;1.88;53.50
75891;BME280;64571;47.512;19.054;2023-02-28T05:09:00;101547.72;;;1.88;53.52
75891;BME280;64571;47.512;19.054;2023-02-28T05:12:03;101571.97;;;2.04;53.71
75891;BME280;64571;47.512;19.054;2023-02-28T05:15:06;101568.59;;;1.95;53.75
75891;BME280;64571;47.512;19.054;2023-02-28T05:18:09;101546.47;;;1.84;54.06
75891;BME280;64571;47.512;19.054;2023-02-28T05:21:30;101572.81;;;1.98;53.74
75891;BME280;64571;47.512;19.054;2023-02-28T05:24:33;101580.62;;;2.01;53.54
75891;BME280;64571;47.512;19.054;2023-02-28T05:27:35;101588.63;;;1.96;53.63
75891;BME280;64571;47.512;19.054;2023-02-28T05:30:38;101581.66;;;2.00;53.82
75891;BME280;64571;47.512;19.054;2023-02-28T05:33:40;101582.28;;;2.02;53.81
75891;BME280;64571;47.512;19.054;2023-02-28T05:36:43;101561.44;;;1.88;53.43
75891;BME280;64571;47.512;19.054;2023-02-28T05:39:46;101584.41;;;2.07;53.53
75891;BME280;64571;47.512;19.054;2023-02-28T05:42:50;101593.88;;;2.11;53.08
75891;BME280;64571;47.512;19.054;2023-02-28T05:45:52;101574.50;;;1.99;52.99
75891;BME280;64571;47.512;19.054;2023-02-28T05:48:55;101588.41;;;2.11;53.45
75891;BME280;64571;47.512;19.054;2023-02-28T05:51:59;101596.00;;;2.02;53.71
75891;BME280;64571;47.512;19.054;2023-02-28T05:55:03;101599.37;;;1.97;53.51
75891;BME280;64571;47.512;19.054;2023-02-28T05:58:05;101605.28;;;2.01;53.51
75891;BME280;64571;47.512;19.054;2023-02-28T06:01:35;101586.94;;;1.95;53.55
75891;BME280;64571;47.512;19.054;2023-02-28T06:04:38;101585.91;;;1.89;53.30
75891;BME280;64571;47.512;19.054;2023-02-28T06:07:40;101600.22;;;2.11;52.93
75891;BME280;64571;47.512;19.054;2023-02-28T06:10:43;101606.78;;;2.03;53.47
75891;BME280;64571;47.512;19.054;2023-02-28T06:13:46;101607.16;;;2.07;53.57
75891;BME280;64571;47.512;19.054;2023-02-28T06:16:49;101590.31;;;1.97;53.02
75891;BME280;64571;47.512;19.054;2023-02-28T06:19:51;101617.31;;;2.13;52.56
75891;BME280;64571;47.512;19.054;2023-02-28T06:22:54;101589.69;;;1.95;53.19
75891;BME280;64571;47.512;19.054;2023-02-28T06:25:58;101585.87;;;2.02;53.77
75891;BME280;64571;47.512;19.054;2023-02-28T06:29:00;101613.91;;;2.24;55.04
75891;BME280;64571;47.512;19.054;2023-02-28T06:32:03;101621.91;;;2.33;55.25
75891;BME280;64571;47.512;19.054;2023-02-28T06:35:06;101620.66;;;2.35;54.96
75891;BME280;64571;47.512;19.054;2023-02-28T06:38:09;101601.25;;;2.23;54.36
75891;BME280;64571;47.512;19.054;2023-02-28T06:41:11;101617.28;;;2.26;54.58
75891;BME280;64571;47.512;19.054;2023-02-28T06:44:17;101616.25;;;2.21;54.26
75891;BME280;64571;47.512;19.054;2023-02-28T06:47:21;101617.94;;;2.22;53.98
75891;BME280;64571;47.512;19.054;2023-02-28T06:50:23;101630.78;;;2.35;53.77
75891;BME280;64571;47.512;19.054;2023-02-28T06:53:26;101631.22;;;2.32;52.79
75891;BME280;64571;47.512;19.054;2023-02-28T06:56:28;101633.94;;;2.45;52.70
75891;BME280;64571;47.512;19.054;2023-02-28T06:59:31;101635.62;;;2.39;52.53
75891;BME280;64571;47.512;19.054;2023-02-28T07:02:34;101634.97;;;2.50;52.31
75891;BME280;64571;47.512;19.054;2023-02-28T07:05:38;101632.44;;;2.62;52.29
75891;BME280;64571;47.512;19.054;2023-02-28T07:08:40;101636.19;;;2.68;51.84
75891;BME280;64571;47.512;19.054;2023-02-28T07:11:43;101633.44;;;2.74;51.62
75891;BME280;64571;47.512;19.054;2023-02-28T07:14:46;101647.56;;;2.78;51.33
75891;BME280;64571;47.512;19.054;2023-02-28T07:17:48;101638.81;;;3.01;50.83
75891;BME280;64571;47.512;19.054;2023-02-28T07:20:51;101634.22;;;2.95;51.05
75891;BME280;64571;47.512;19.054;2023-02-28T07:23:55;101656.38;;;3.00;50.75
75891;BME280;64571;47.512;19.054;2023-02-28T07:26:58;101651.72;;;3.00;50.63
75891;BME280;64571;47.512;19.054;2023-02-28T07:30:02;101657.22;;;3.00;50.20
75891;BME280;64571;47.512;19.054;2023-02-28T07:33:05;101630.63;;;2.94;50.61
75891;BME280;64571;47.512;19.054;2023-02-28T07:36:11;101654.44;;;3.07;50.25
75891;BME280;64571;47.512;19.054;2023-02-28T07:39:17;101639.47;;;3.03;50.39
75891;BME280;64571;47.512;19.054;2023-02-28T07:42:20;101628.50;;;3.03;50.28
75891;BME280;64571;47.512;19.054;2023-02-28T07:45:24;101664.13;;;3.16;50.09
75891;BME280;64571;47.512;19.054;2023-02-28T07:48:26;101665.62;;;3.12;50.03
75891;BME280;64571;47.512;19.054;2023-02-28T07:51:29;101656.44;;;3.32;50.01
75891;BME280;64571;47.512;19.054;2023-02-28T07:54:33;101667.00;;;3.35;49.86
75891;BME280;64571;47.512;19.054;2023-02-28T07:57:35;101671.72;;;3.21;50.03
75891;BME280;64571;47.512;19.054;2023-02-28T08:00:38;101668.13;;;3.20;50.10
75891;BME280;64571;47.512;19.054;2023-02-28T08:03:41;101662.19;;;3.23;50.30
75891;BME280;64571;47.512;19.054;2023-02-28T08:06:44;101663.25;;;3.22;49.65
75891;BME280;64571;47.512;19.054;2023-02-28T08:09:47;101663.56;;;3.46;48.97
75891;BME280;64571;47.512;19.054;2023-02-28T08:12:49;101635.03;;;3.47;48.41
75891;BME280;64571;47.512;19.054;2023-02-28T08:15:55;101664.97;;;3.55;48.47
75891;BME280;64571;47.512;19.054;2023-02-28T08:18:58;101657.37;;;3.57;48.34
75891;BME280;64571;47.512;19.054;2023-02-28T08:22:01;101661.66;;;3.78;47.84
75891;BME280;64571;47.512;19.054;2023-02-28T08:25:03;101669.81;;;3.91;47.78
75891;BME280;64571;47.512;19.054;2023-02-28T08:28:06;101641.00;;;3.69;47.65
75891;BME280;64571;47.512;19.054;2023-02-28T08:31:10;101665.62;;;3.89;47.69
75891;BME280;64571;47.512;19.054;2023-02-28T08:34:15;101669.88;;;3.85;47.21
75891;BME280;64571;47.512;19.054;2023-02-28T08:37:18;101662.25;;;3.87;47.04
75891;BME280;64571;47.512;19.054;2023-02-28T08:40:20;101654.78;;;3.94;47.34
75891;BME280;64571;47.512;19.054;2023-02-28T08:43:23;101650.69;;;4.03;46.81
75891;BME280;64571;47.512;19.054;2023-02-28T08:46:25;101657.94;;;4.22;46.87
75891;BME280;64571;47.512;19.054;2023-02-28T08:49:28;101654.94;;;4.49;46.00
75891;BME280;64571;47.512;19.054;2023-02-28T08:52:32;101650.53;;;4.66;44.76
75891;BME280;64571;47.512;19.054;2023-02-28T08:55:35;101641.94;;;4.38;44.69
75891;BME280;64571;47.512;19.054;2023-02-28T08:58:38;101640.47;;;4.78;44.40
75891;BME280;64571;47.512;19.054;2023-02-28T09:01:41;101634.31;;;4.95;43.79
75891;BME280;64571;47.512;19.054;2023-02-28T09:04:44;101656.19;;;5.26;43.43
75891;BME280;64571;47.512;19.054;2023-02-28T09:07:49;101651.63;;;5.20;43.71
75891;BME280;64571;47.512;19.054;2023-02-28T09:10:52;101654.53;;;5.07;43.81
75891;BME280;64571;47.512;19.054;2023-02-28T09:13:57;101652.62;;;5.07;43.99
75891;BME280;64571;47.512;19.054;2023-02-28T09:17:00;101655.34;;;5.26;44.17
75891;BME280;64571;47.512;19.054;2023-02-28T09:20:04;101656.56;;;5.30;43.91
75891;BME280;64571;47.512;19.054;2023-02-28T09:23:08;101652.22;;;5.41;44.02
75891;BME280;64571;47.512;19.054;2023-02-28T09:26:15;101653.59;;;5.31;44.30
75891;BME280;64571;47.512;19.054;2023-02-28T09:29:18;101653.69;;;5.25;44.09
75891;BME280;64571;47.512;19.054;2023-02-28T09:32:21;101655.44;;;5.19;43.92
75891;BME280;64571;47.512;19.054;2023-02-28T09:35:24;101657.97;;;5.21;44.37
75891;BME280;64571;47.512;19.054;2023-02-28T09:38:28;101649.25;;;5.05;44.20
75891;BME280;64571;47.512;19.054;2023-02-28T09:41:40;101667.22;;;5.26;44.27
75891;BME280;64571;47.512;19.054;2023-02-28T09:44:50;101663.97;;;5.48;43.85
75891;BME280;64571;47.512;19.054;2023-02-28T09:47:56;101658.72;;;5.58;43.84
75891;BME280;64571;47.512;19.054;2023-02-28T09:51:04;101631.97;;;5.47;43.88
75891;BME280;64571;47.512;19.054;2023-02-28T09:54:14;101655.13;;;5.27;44.17
75891;BME280;64571;47.512;19.054;2023-02-28T09:57:34;101639.91;;;5.25;44.31
75891;BME280;64571;47.512;19.054;2023-02-28T10:00:40;101655.47;;;5.49;43.77
75891;BME280;64571;47.512;19.054;2023-02-28T10:10:27;101623.97;;;5.57;43.43
75891;BME280;64571;47.512;19.054;2023-02-28T10:16:46;101649.09;;;5.79;43.34
75891;BME280;64571;47.512;19.054;2023-02-28T10:20:19;101635.84;;;5.57;42.78
75891;BME280;64571;47.512;19.054;2023-02-28T10:23:27;101653.41;;;5.75;43.17
75891;BME280;64571;47.512;19.054;2023-02-28T10:26:32;101643.16;;;5.94;42.82
75891;BME280;64571;47.512;19.054;2023-02-28T10:29:35;101636.59;;;5.95;42.70
75891;BME280;64571;47.512;19.054;2023-02-28T10:32:38;101639.94;;;5.97;42.78
75891;BME280;64571;47.512;19.054;2023-02-28T10:35:42;101615.72;;;6.11;42.60
75891;BME280;64571;47.512;19.054;2023-02-28T10:38:46;101629.19;;;6.19;42.48
75891;BME280;64571;47.512;19.054;2023-02-28T10:41:49;101627.72;;;6.04;42.87
75891;BME280;64571;47.512;19.054;2023-02-28T10:45:13;101623.84;;;5.94;42.79
75891;BME280;64571;47.512;19.054;2023-02-28T10:51:19;101619.31;;;6.11;42.84
75891;BME280;64571;47.512;19.054;2023-02-28T10:54:29;101617.66;;;6.10;43.08
75891;BME280;64571;47.512;19.054;2023-02-28T10:57:37;101608.41;;;6.16;43.10
75891;BME280;64571;47.512;19.054;2023-02-28T11:00:40;101601.91;;;5.99;43.50
75891;BME280;64571;47.512;19.054;2023-02-28T11:03:43;101605.72;;;5.86;44.01
75891;BME280;64571;47.512;19.054;2023-02-28T11:06:46;101609.78;;;5.83;43.85
75891;BME280;64571;47.512;19.054;2023-02-28T11:09:51;101584.56;;;5.80;43.76
75891;BME280;64571;47.512;19.054;2023-02-28T11:12:56;101589.97;;;5.75;43.99
75891;BME280;64571;47.512;19.054;2023-02-28T11:16:07;101609.84;;;6.07;43.92
75891;BME280;64571;47.512;19.054;2023-02-28T11:19:19;101599.87;;;6.29;43.52
75891;BME280;64571;47.512;19.054;2023-02-28T11:22:25;101592.69;;;6.28;43.51
75891;BME280;64571;47.512;19.054;2023-02-28T11:25:34;101599.44;;;6.44;43.55
75891;BME280;64571;47.512;19.054;2023-02-28T11:28:39;101594.62;;;6.40;43.17
75891;BME280;64571;47.512;19.054;2023-02-28T11:31:43;101598.22;;;6.40;43.14
75891;BME280;64571;47.512;19.054;2023-02-28T11:34:46;101600.25;;;6.68;42.76
75891;BME280;64571;47.512;19.054;2023-02-28T11:38:04;101592.69;;;6.52;43.23
75891;BME280;64571;47.512;19.054;2023-02-28T11:48:17;101590.28;;;6.44;44.63
75891;BME280;64571;47.512;19.054;2023-02-28T11:51:34;101591.22;;;6.61;44.49
75891;BME280;64571;47.512;19.054;2023-02-28T11:57:52;101574.34;;;6.22;45.42
75891;BME280;64571;47.512;19.054;2023-02-28T12:01:18;101578.91;;;6.28;45.37
75891;BME280;64571;47.512;19.054;2023-02-28T12:04:36;101583.66;;;6.68;44.85
75891;BME280;64571;47.512;19.054;2023-02-28T12:08:14;101584.41;;;6.64;44.63
75891;BME280;64571;47.512;19.054;2023-02-28T12:11:52;101577.59;;;6.95;43.95
75891;BME280;64571;47.512;19.054;2023-02-28T12:15:11;101578.63;;;7.05;43.45
75891;BME280;64571;47.512;19.054;2023-02-28T12:18:26;101576.22;;;7.09;43.12
75891;BME280;64571;47.512;19.054;2023-02-28T12:22:12;101546.28;;;6.77;43.45
75891;BME280;64571;47.512;19.054;2023-02-28T12:28:32;101557.38;;;7.34;43.24
75891;BME280;64571;47.512;19.054;2023-02-28T12:31:40;101536.53;;;7.44;42.98
75891;BME280;64571;47.512;19.054;2023-02-28T12:35:16;101543.81;;;7.50;42.77
75891;BME280;64571;47.512;19.054;2023-02-28T12:38:36;101521.87;;;7.43;42.58
75891;BME280;64571;47.512;19.054;2023-02-28T12:42:03;101519.84;;;7.10;43.73
75891;BME280;64571;47.512;19.054;2023-02-28T12:45:11;101535.56;;;7.38;43.32
75891;BME280;64571;47.512;19.054;2023-02-28T12:48:27;101534.25;;;7.41;43.47
75891;BME280;64571;47.512;19.054;2023-02-28T12:51:32;101533.59;;;7.50;43.45
75891;BME280;64571;47.512;19.054;2023-02-28T12:54:47;101534.75;;;7.37;44.14
75891;BME280;64571;47.512;19.054;2023-02-28T13:01:32;101530.44;;;7.13;44.26
75891;BME280;64571;47.512;19.054;2023-02-28T13:10:49;101519.50;;;7.52;43.90
75891;BME280;64571;47.512;19.054;2023-02-28T13:14:04;101528.03;;;7.33;44.88
75891;BME280;64571;47.512;19.054;2023-02-28T13:20:24;101516.13;;;7.33;44.75
75891;BME280;64571;47.512;19.054;2023-02-28T13:23:40;101518.44;;;7.24;45.28
75891;BME280;64571;47.512;19.054;2023-02-28T13:29:52;101504.41;;;7.43;45.03
75891;BME280;64571;47.512;19.054;2023-02-28T13:33:34;101511.19;;;7.52;44.90
75891;BME280;64571;47.512;19.054;2023-02-28T13:36:37;101509.81;;;7.66;44.83
75891;BME280;64571;47.512;19.054;2023-02-28T13:46:10;101500.16;;;7.69;44.55
75891;BME280;64571;47.512;19.054;2023-02-28T13:52:25;101488.06;;;7.92;43.98
75891;BME280;64571;47.512;19.054;2023-02-28T13:55:33;101482.59;;;7.97;43.95
75891;BME280;64571;47.512;19.054;2023-02-28T13:58:48;101477.94;;;8.19;43.49
75891;BME280;64571;47.512;19.054;2023-02-28T14:02:14;101474.37;;;8.02;43.67
75891;BME280;64571;47.512;19.054;2023-02-28T14:05:24;101465.28;;;7.84;44.08
75891;BME280;64571;47.512;19.054;2023-02-28T14:08:28;101484.56;;;7.62;44.91
75891;BME280;64571;47.512;19.054;2023-02-28T14:11:37;101465.69;;;7.43;45.07
75891;BME280;64571;47.512;19.054;2023-02-28T14:17:43;101466.69;;;7.36;45.31
75891;BME280;64571;47.512;19.054;2023-02-28T14:20:47;101474.72;;;7.38;45.44
75891;BME280;64571;47.512;19.054;2023-02-28T14:31:00;101463.50;;;7.28;45.48
75891;BME280;64571;47.512;19.054;2023-02-28T14:37:20;101460.06;;;7.21;45.61
75891;BME280;64571;47.512;19.054;2023-02-28T14:40:33;101441.66;;;6.98;46.09
75891;BME280;64571;47.512;19.054;2023-02-28T14:43:36;101460.22;;;7.14;46.00
75891;BME280;64571;47.512;19.054;2023-02-28T14:46:40;101450.41;;;7.06;46.18
75891;BME280;64571;47.512;19.054;2023-02-28T14:49:45;101446.03;;;6.94;46.36
75891;BME280;64571;47.512;19.054;2023-02-28T14:52:53;101446.03;;;6.94;46.20
75891;BME280;64571;47.512;19.054;2023-02-28T14:55:56;101457.09;;;6.94;46.51
75891;BME280;64571;47.512;19.054;2023-02-28T14:58:58;101461.09;;;6.86;46.78
75891;BME280;64571;47.512;19.054;2023-02-28T15:05:29;101476.44;;;6.94;46.73
75891;BME280;64571;47.512;19.054;2023-02-28T15:08:32;101471.00;;;6.99;46.46
75891;BME280;64571;47.512;19.054;2023-02-28T15:11:38;101455.16;;;6.94;46.48
75891;BME280;64571;47.512;19.054;2023-02-28T15:14:43;101474.50;;;6.94;46.85
75891;BME280;64571;47.512;19.054;2023-02-28T15:17:50;101480.87;;;6.95;46.96
75891;BME280;64571;47.512;19.054;2023-02-28T15:20:55;101474.34;;;7.01;46.83
75891;BME280;64571;47.512;19.054;2023-02-28T15:27:07;101477.94;;;6.84;47.53
75891;BME280;64571;47.512;19.054;2023-02-28T15:30:25;101479.97;;;6.77;47.58
75891;BME280;64571;47.512;19.054;2023-02-28T15:33:34;101472.28;;;6.79;47.75
75891;BME280;64571;47.512;19.054;2023-02-28T15:36:36;101453.69;;;6.75;47.63
75891;BME280;64571;47.512;19.054;2023-02-28T15:39:43;101456.00;;;6.66;47.79
75891;BME280;64571;47.512;19.054;2023-02-28T15:43:03;101463.13;;;6.62;48.00
75891;BME280;64571;47.512;19.054;2023-02-28T15:46:07;101467.37;;;6.70;48.05
75891;BME280;64571;47.512;19.054;2023-02-28T15:49:19;101465.75;;;6.57;49.31
75891;BME280;64571;47.512;19.054;2023-02-28T15:52:31;101444.19;;;6.42;49.83
75891;BME280;64571;47.512;19.054;2023-02-28T15:55:35;101456.53;;;6.51;49.97
75891;BME280;64571;47.512;19.054;2023-02-28T15:58:41;101464.22;;;6.49;50.26
75891;BME280;64571;47.512;19.054;2023-02-28T16:01:44;101462.78;;;6.47;50.47
75891;BME280;64571;47.512;19.054;2023-02-28T16:05:18;101461.31;;;6.56;50.32
75891;BME280;64571;47.512;19.054;2023-02-28T16:08:22;101474.66;;;6.47;50.36
75891;BME280;64571;47.512;19.054;2023-02-28T16:11:25;101460.06;;;6.35;50.45
75891;BME280;64571;47.512;19.054;2023-02-28T16:14:29;101452.38;;;6.25;50.84
75891;BME280;64571;47.512;19.054;2023-02-28T16:17:35;101472.44;;;6.32;51.02
75891;BME280;64571;47.512;19.054;2023-02-28T16:20:40;101482.53;;;6.27;51.14
75891;BME280;64571;47.512;19.054;2023-02-28T16:23:43;101485.28;;;6.27;51.47
75891;BME280;64571;47.512;19.054;2023-02-28T16:26:47;101467.31;;;6.13;51.69
75891;BME280;64571;47.512;19.054;2023-02-28T16:29:54;101474.50;;;6.14;51.82
75891;BME280;64571;47.512;19.054;2023-02-28T16:32:56;101489.41;;;6.13;52.05
75891;BME280;64571;47.512;19.054;2023-02-28T16:36:00;101484.34;;;6.09;52.12
75891;BME280;64571;47.512;19.054;2023-02-28T16:39:02;101489.97;;;6.03;52.36
75891;BME280;64571;47.512;19.054;2023-02-28T16:42:06;101483.75;;;5.96;52.42
75891;BME280;64571;47.512;19.054;2023-02-28T16:45:20;101471.06;;;5.95;52.71
75891;BME280;64571;47.512;19.054;2023-02-28T16:48:24;101487.34;;;6.08;52.90
75891;BME280;64571;47.512;19.054;2023-02-28T16:51:27;101491.78;;;6.09;52.91
75891;BME280;64571;47.512;19.054;2023-02-28T16:54:30;101498.75;;;6.00;53.16
75891;BME280;64571;47.512;19.054;2023-02-28T16:57:33;101496.22;;;5.98;53.22
75891;BME280;64571;47.512;19.054;2023-02-28T17:00:35;101484.09;;;5.88;53.47
75891;BME280;64571;47.512;19.054;2023-02-28T17:03:39;101510.38;;;6.02;53.50
75891;BME280;64571;47.512;19.054;2023-02-28T17:06:43;101495.69;;;5.90;53.68
75891;BME280;64571;47.512;19.054;2023-02-28T17:09:45;101504.63;;;5.92;54.01
75891;BME280;64571;47.512;19.054;2023-02-28T17:12:48;101507.97;;;5.94;54.15
75891;BME280;64571;47.512;19.054;2023-02-28T17:15:51;101503.41;;;5.88;54.65
75891;BME280;64571;47.512;19.054;2023-02-28T17:19:03;101504.16;;;5.95;54.53
75891;BME280;64571;47.512;19.054;2023-02-28T17:22:07;101490.44;;;5.88;54.57
75891;BME280;64571;47.512;19.054;2023-02-28T17:25:10;101510.25;;;5.97;55.03
75891;BME280;64571;47.512;19.054;2023-02-28T17:28:13;101516.25;;;5.94;55.06
75891;BME280;64571;47.512;19.054;2023-02-28T17:31:16;101512.91;;;5.92;55.40
75891;BME280;64571;47.512;19.054;2023-02-28T17:34:18;101517.91;;;5.83;55.81
75891;BME280;64571;47.512;19.054;2023-02-28T17:37:22;101518.63;;;5.78;55.87
75891;BME280;64571;47.512;19.054;2023-02-28T17:40:24;101499.06;;;5.68;55.86
75891;BME280;64571;47.512;19.054;2023-02-28T17:43:27;101499.53;;;5.65;56.10
75891;BME280;64571;47.512;19.054;2023-02-28T17:46:30;101519.13;;;5.87;55.87
75891;BME280;64571;47.512;19.054;2023-02-28T17:49:34;101514.19;;;5.89;55.88
75891;BME280;64571;47.512;19.054;2023-02-28T17:52:36;101495.34;;;5.74;55.90
75891;BME280;64571;47.512;19.054;2023-02-28T17:55:39;101513.34;;;5.77;55.90
75891;BME280;64571;47.512;19.054;2023-02-28T17:58:42;101484.28;;;5.63;56.01
75891;BME280;64571;47.512;19.054;2023-02-28T18:01:45;101516.22;;;5.82;56.03